Terminal Aerodrome Forecast
Issued by NWS Omaha/Valley, NE

Home | Current Version | Previous Version | Text Only | Print | Product List | Glossary On
Versions: 1 2 3 4 5 6 7 8 9 10 11 12 13 14 15 16 17
000
FTUS43 KOAX 232323
TAFOMA
TAF
KOMA 232323Z 2400/2424 14021G28KT P6SM OVC100
      TEMPO 2400/2404 3SM TSRA BKN030CB
     FM240400 18013KT P6SM OVC050
      TEMPO 2404/2406 3SM TSRA BKN030CB
     FM240600 16012KT 6SM -TSRA OVC030CB
     FM240800 17013KT 6SM -TSRA OVC030CB
     FM241000 21013KT 6SM -SHRA OVC030
     FM241100 28012KT 6SM -SHRA OVC030
     FM241200 31012KT 6SM -SHRA OVC025
     FM241500 34015G21KT P6SM OVC025
     FM241600 33015G21KT P6SM OVC050=

USA.gov is the U.S. government's official web portal to all federal, state and local government web resources and services.